sensor_id;sensor_type;location;lat;lon;timestamp;pressure;altitude;pressure_sealevel;temperature;humidity
35758;BME280;21879;50.110;18.900;2023-04-24T00:04:47;97796.13;;;13.49;55.53
35758;BME280;21879;50.110;18.900;2023-04-24T00:15:13;97789.10;;;13.40;55.51
35758;BME280;21879;50.110;18.900;2023-04-24T00:25:39;97777.67;;;13.32;55.35
35758;BME280;21879;50.110;18.900;2023-04-24T00:36:06;97766.17;;;13.16;55.47
35758;BME280;21879;50.110;18.900;2023-04-24T00:46:32;97750.19;;;13.08;55.71
35758;BME280;21879;50.110;18.900;2023-04-24T00:56:58;97741.86;;;13.12;56.08
35758;BME280;21879;50.110;18.900;2023-04-24T01:07:26;97740.42;;;13.13;56.07
35758;BME280;21879;50.110;18.900;2023-04-24T01:17:52;97731.91;;;13.17;56.31
35758;BME280;21879;50.110;18.900;2023-04-24T01:28:18;97722.73;;;13.10;56.16
35758;BME280;21879;50.110;18.900;2023-04-24T01:38:45;97718.02;;;12.95;56.17
35758;BME280;21879;50.110;18.900;2023-04-24T01:49:11;97706.94;;;12.83;55.66
35758;BME280;21879;50.110;18.900;2023-04-24T01:59:36;97701.22;;;12.81;56.14
35758;BME280;21879;50.110;18.900;2023-04-24T02:10:03;97699.83;;;12.87;56.21
35758;BME280;21879;50.110;18.900;2023-04-24T02:20:30;97690.89;;;12.88;56.55
35758;BME280;21879;50.110;18.900;2023-04-24T02:30:58;97679.39;;;13.02;56.79
35758;BME280;21879;50.110;18.900;2023-04-24T02:41:32;97672.78;;;13.07;56.90
35758;BME280;21879;50.110;18.900;2023-04-24T02:51:59;97668.91;;;13.27;57.02
35758;BME280;21879;50.110;18.900;2023-04-24T03:02:25;97668.98;;;13.35;56.25
35758;BME280;21879;50.110;18.900;2023-04-24T03:12:52;97672.05;;;13.27;56.66
35758;BME280;21879;50.110;18.900;2023-04-24T03:23:19;97674.89;;;13.26;57.02
35758;BME280;21879;50.110;18.900;2023-04-24T03:33:45;97671.77;;;13.26;57.09
35758;BME280;21879;50.110;18.900;2023-04-24T03:44:10;97666.45;;;13.22;57.01
35758;BME280;21879;50.110;18.900;2023-04-24T03:54:36;97664.30;;;13.24;57.09
35758;BME280;21879;50.110;18.900;2023-04-24T04:05:02;97665.63;;;13.22;56.74
35758;BME280;21879;50.110;18.900;2023-04-24T04:15:29;97663.70;;;13.11;56.78
35758;BME280;21879;50.110;18.900;2023-04-24T04:25:55;97659.34;;;13.07;57.01
35758;BME280;21879;50.110;18.900;2023-04-24T04:36:21;97662.68;;;13.11;57.06
35758;BME280;21879;50.110;18.900;2023-04-24T04:46:48;97661.61;;;13.21;57.08
35758;BME280;21879;50.110;18.900;2023-04-24T04:57:14;97654.33;;;13.30;57.03
35758;BME280;21879;50.110;18.900;2023-04-24T05:07:40;97656.10;;;13.43;57.08
35758;BME280;21879;50.110;18.900;2023-04-24T05:18:06;97660.40;;;13.63;57.26
35758;BME280;21879;50.110;18.900;2023-04-24T05:28:32;97656.80;;;13.84;57.84
35758;BME280;21879;50.110;18.900;2023-04-24T05:38:57;97653.56;;;14.34;58.17
35758;BME280;21879;50.110;18.900;2023-04-24T05:49:23;97647.05;;;15.13;55.73
35758;BME280;21879;50.110;18.900;2023-04-24T05:59:49;97641.66;;;16.07;52.54
35758;BME280;21879;50.110;18.900;2023-04-24T06:10:16;97631.66;;;16.81;49.72
35758;BME280;21879;50.110;18.900;2023-04-24T06:20:42;97626.09;;;17.49;47.96
35758;BME280;21879;50.110;18.900;2023-04-24T06:31:08;97621.86;;;18.19;46.49
35758;BME280;21879;50.110;18.900;2023-04-24T06:41:34;97618.70;;;18.83;44.55
35758;BME280;21879;50.110;18.900;2023-04-24T06:52:00;97611.33;;;19.26;42.89
35758;BME280;21879;50.110;18.900;2023-04-24T07:02:25;97602.32;;;19.63;40.95
35758;BME280;21879;50.110;18.900;2023-04-24T07:12:51;97593.98;;;19.88;39.58
35758;BME280;21879;50.110;18.900;2023-04-24T07:23:19;97589.73;;;20.10;38.77
35758;BME280;21879;50.110;18.900;2023-04-24T07:33:45;97584.19;;;20.03;38.21
35758;BME280;21879;50.110;18.900;2023-04-24T07:44:11;97576.23;;;19.98;37.48
35758;BME280;21879;50.110;18.900;2023-04-24T07:54:37;97578.02;;;19.82;37.11
35758;BME280;21879;50.110;18.900;2023-04-24T08:05:04;97572.25;;;19.84;37.91
35758;BME280;21879;50.110;18.900;2023-04-24T08:15:30;97560.61;;;20.10;37.18
35758;BME280;21879;50.110;18.900;2023-04-24T08:25:56;97559.73;;;20.29;36.22
35758;BME280;21879;50.110;18.900;2023-04-24T08:36:23;97553.73;;;20.50;36.47
35758;BME280;21879;50.110;18.900;2023-04-24T08:47:08;97542.13;;;20.65;36.71
35758;BME280;21879;50.110;18.900;2023-04-24T08:57:34;97533.38;;;20.79;36.42
35758;BME280;21879;50.110;18.900;2023-04-24T09:08:06;97533.38;;;20.66;35.58
35758;BME280;21879;50.110;18.900;2023-04-24T09:18:32;97540.30;;;20.37;35.34
35758;BME280;21879;50.110;18.900;2023-04-24T09:29:00;97541.02;;;20.05;35.76
35758;BME280;21879;50.110;18.900;2023-04-24T09:39:26;97537.52;;;19.97;35.88
35758;BME280;21879;50.110;18.900;2023-04-24T09:49:58;97530.45;;;19.94;36.21
35758;BME280;21879;50.110;18.900;2023-04-24T10:00:26;97523.81;;;19.96;36.86
35758;BME280;21879;50.110;18.900;2023-04-24T10:10:53;97521.80;;;19.81;36.83
35758;BME280;21879;50.110;18.900;2023-04-24T10:21:20;97517.55;;;19.59;36.52
35758;BME280;21879;50.110;18.900;2023-04-24T10:31:46;97525.36;;;19.28;37.22
35758;BME280;21879;50.110;18.900;2023-04-24T10:42:16;97535.81;;;18.87;37.69
35758;BME280;21879;50.110;18.900;2023-04-24T10:52:49;97535.31;;;18.58;38.73
35758;BME280;21879;50.110;18.900;2023-04-24T11:03:28;97536.91;;;18.40;39.31
35758;BME280;21879;50.110;18.900;2023-04-24T11:14:05;97534.73;;;18.29;39.73
35758;BME280;21879;50.110;18.900;2023-04-24T11:24:38;97537.98;;;18.25;39.61
35758;BME280;21879;50.110;18.900;2023-04-24T11:35:07;97534.54;;;18.21;39.92
35758;BME280;21879;50.110;18.900;2023-04-24T11:45:34;97556.61;;;18.04;40.73
35758;BME280;21879;50.110;18.900;2023-04-24T11:56:04;97562.98;;;17.75;41.74
35758;BME280;21879;50.110;18.900;2023-04-24T12:06:30;97561.05;;;17.37;42.46
35758;BME280;21879;50.110;18.900;2023-04-24T12:16:55;97556.27;;;17.22;43.84
35758;BME280;21879;50.110;18.900;2023-04-24T12:27:22;97548.61;;;17.04;45.00
35758;BME280;21879;50.110;18.900;2023-04-24T12:37:48;97547.31;;;16.96;45.51
35758;BME280;21879;50.110;18.900;2023-04-24T12:48:15;97546.91;;;16.81;46.46
35758;BME280;21879;50.110;18.900;2023-04-24T12:58:41;97553.88;;;16.57;46.72
35758;BME280;21879;50.110;18.900;2023-04-24T13:09:06;97553.89;;;16.26;47.61
35758;BME280;21879;50.110;18.900;2023-04-24T13:19:38;97538.75;;;16.00;49.06
35758;BME280;21879;50.110;18.900;2023-04-24T13:30:06;97532.09;;;15.86;50.53
35758;BME280;21879;50.110;18.900;2023-04-24T13:40:31;97530.73;;;15.66;51.60
35758;BME280;21879;50.110;18.900;2023-04-24T13:50:57;97525.94;;;15.53;52.73
35758;BME280;21879;50.110;18.900;2023-04-24T14:01:23;97522.66;;;15.33;53.99
35758;BME280;21879;50.110;18.900;2023-04-24T14:11:49;97513.95;;;15.18;54.68
35758;BME280;21879;50.110;18.900;2023-04-24T14:22:16;97509.02;;;15.11;55.10
35758;BME280;21879;50.110;18.900;2023-04-24T14:32:42;97509.90;;;14.96;54.91
35758;BME280;21879;50.110;18.900;2023-04-24T14:43:08;97498.16;;;14.88;55.08
35758;BME280;21879;50.110;18.900;2023-04-24T14:53:35;97499.77;;;14.88;55.16
35758;BME280;21879;50.110;18.900;2023-04-24T15:04:01;97504.40;;;14.89;55.27
35758;BME280;21879;50.110;18.900;2023-04-24T15:14:27;97503.55;;;14.93;55.24
35758;BME280;21879;50.110;18.900;2023-04-24T15:24:53;97499.57;;;14.92;55.35
35758;BME280;21879;50.110;18.900;2023-04-24T15:35:19;97500.86;;;14.87;55.61
35758;BME280;21879;50.110;18.900;2023-04-24T15:45:45;97499.28;;;14.83;55.76
35758;BME280;21879;50.110;18.900;2023-04-24T15:56:11;97502.83;;;14.93;55.93
35758;BME280;21879;50.110;18.900;2023-04-24T16:06:37;97506.65;;;14.94;55.84
35758;BME280;21879;50.110;18.900;2023-04-24T16:17:02;97502.36;;;14.80;55.97
35758;BME280;21879;50.110;18.900;2023-04-24T16:27:29;97501.55;;;14.64;56.32
35758;BME280;21879;50.110;18.900;2023-04-24T16:37:54;97502.91;;;14.52;56.85
35758;BME280;21879;50.110;18.900;2023-04-24T16:48:20;97502.54;;;14.45;57.79
35758;BME280;21879;50.110;18.900;2023-04-24T16:58:46;97500.27;;;14.61;58.49
35758;BME280;21879;50.110;18.900;2023-04-24T17:09:13;97498.80;;;14.78;59.10
35758;BME280;21879;50.110;18.900;2023-04-24T17:19:39;97492.89;;;14.89;59.72
35758;BME280;21879;50.110;18.900;2023-04-24T17:30:08;97500.02;;;15.05;60.22
35758;BME280;21879;50.110;18.900;2023-04-24T17:40:35;97511.45;;;15.15;60.35
35758;BME280;21879;50.110;18.900;2023-04-24T17:51:02;97513.08;;;15.17;60.34
35758;BME280;21879;50.110;18.900;2023-04-24T18:01:28;97519.23;;;15.21;60.62
35758;BME280;21879;50.110;18.900;2023-04-24T18:11:54;97532.26;;;15.27;60.65
35758;BME280;21879;50.110;18.900;2023-04-24T18:22:21;97548.16;;;15.31;60.69
35758;BME280;21879;50.110;18.900;2023-04-24T18:32:46;97557.00;;;15.30;60.65
35758;BME280;21879;50.110;18.900;2023-04-24T18:43:12;97559.52;;;15.13;60.74
35758;BME280;21879;50.110;18.900;2023-04-24T18:53:38;97566.28;;;14.87;61.03
35758;BME280;21879;50.110;18.900;2023-04-24T19:04:04;97573.83;;;14.67;61.91
35758;BME280;21879;50.110;18.900;2023-04-24T19:14:31;97573.70;;;14.66;62.62
35758;BME280;21879;50.110;18.900;2023-04-24T19:24:57;97575.35;;;14.65;62.95
35758;BME280;21879;50.110;18.900;2023-04-24T19:35:23;97575.88;;;14.56;63.46
35758;BME280;21879;50.110;18.900;2023-04-24T19:45:50;97573.80;;;14.56;63.86
35758;BME280;21879;50.110;18.900;2023-04-24T19:56:16;97567.35;;;14.59;64.16
35758;BME280;21879;50.110;18.900;2023-04-24T20:06:42;97567.73;;;14.58;64.38
35758;BME280;21879;50.110;18.900;2023-04-24T20:17:08;97571.32;;;14.65;64.55
35758;BME280;21879;50.110;18.900;2023-04-24T20:27:34;97566.27;;;14.64;64.67
35758;BME280;21879;50.110;18.900;2023-04-24T20:38:00;97580.61;;;14.52;64.72
35758;BME280;21879;50.110;18.900;2023-04-24T20:48:26;97581.85;;;14.34;64.87
35758;BME280;21879;50.110;18.900;2023-04-24T20:58:52;97588.55;;;14.29;65.33
35758;BME280;21879;50.110;18.900;2023-04-24T21:09:20;97598.51;;;14.17;65.42
35758;BME280;21879;50.110;18.900;2023-04-24T21:19:46;97604.09;;;14.04;65.18
35758;BME280;21879;50.110;18.900;2023-04-24T21:30:13;97607.16;;;13.71;64.60
35758;BME280;21879;50.110;18.900;2023-04-24T21:40:38;97615.32;;;13.50;64.68
35758;BME280;21879;50.110;18.900;2023-04-24T21:51:04;97619.87;;;13.37;64.58
35758;BME280;21879;50.110;18.900;2023-04-24T22:01:31;97615.37;;;13.21;64.82
35758;BME280;21879;50.110;18.900;2023-04-24T22:11:57;97615.86;;;13.16;65.08
35758;BME280;21879;50.110;18.900;2023-04-24T22:22:23;97626.55;;;13.06;65.16
35758;BME280;21879;50.110;18.900;2023-04-24T22:32:49;97631.52;;;12.94;65.53
35758;BME280;21879;50.110;18.900;2023-04-24T22:43:15;97632.83;;;12.86;65.83
35758;BME280;21879;50.110;18.900;2023-04-24T22:53:42;97629.27;;;12.79;66.17
35758;BME280;21879;50.110;18.900;2023-04-24T23:04:08;97631.92;;;12.83;66.15
35758;BME280;21879;50.110;18.900;2023-04-24T23:14:33;97626.02;;;12.77;66.35
35758;BME280;21879;50.110;18.900;2023-04-24T23:25:00;97621.09;;;12.79;66.50
35758;BME280;21879;50.110;18.900;2023-04-24T23:35:25;97617.69;;;12.90;66.69
35758;BME280;21879;50.110;18.900;2023-04-24T23:45:51;97609.48;;;13.10;66.55
35758;BME280;21879;50.110;18.900;2023-04-24T23:56:17;97604.01;;;13.16;66.49
